sensor_id;sensor_type;location;lat;lon;timestamp;P1;durP1;ratioP1;P2;durP2;ratioP2
70532;SDS011;58088;51.186;17.130;2022-11-15T00:02:15;53.60;;;24.30;;
70532;SDS011;58088;51.186;17.130;2022-11-15T00:05:00;49.50;;;23.80;;
70532;SDS011;58088;51.186;17.130;2022-11-15T00:07:44;57.90;;;25.20;;
70532;SDS011;58088;51.186;17.130;2022-11-15T00:10:29;51.60;;;23.50;;
70532;SDS011;58088;51.186;17.130;2022-11-15T00:13:14;51.30;;;22.50;;
70532;SDS011;58088;51.186;17.130;2022-11-15T00:16:01;49.00;;;22.70;;
70532;SDS011;58088;51.186;17.130;2022-11-15T00:18:46;47.40;;;22.10;;
70532;SDS011;58088;51.186;17.130;2022-11-15T00:21:31;49.10;;;22.70;;
70532;SDS011;58088;51.186;17.130;2022-11-15T00:24:16;54.00;;;23.50;;
70532;SDS011;58088;51.186;17.130;2022-11-15T00:27:01;49.40;;;23.10;;
70532;SDS011;58088;51.186;17.130;2022-11-15T00:29:45;47.30;;;22.70;;
70532;SDS011;58088;51.186;17.130;2022-11-15T00:32:31;56.70;;;24.00;;
70532;SDS011;58088;51.186;17.130;2022-11-15T00:35:17;51.40;;;23.90;;
70532;SDS011;58088;51.186;17.130;2022-11-15T00:38:03;57.70;;;25.00;;
70532;SDS011;58088;51.186;17.130;2022-11-15T00:40:47;60.20;;;24.70;;
70532;SDS011;58088;51.186;17.130;2022-11-15T00:43:33;53.80;;;25.00;;
70532;SDS011;58088;51.186;17.130;2022-11-15T00:46:18;49.10;;;22.70;;
70532;SDS011;58088;51.186;17.130;2022-11-15T00:49:03;54.20;;;23.70;;
70532;SDS011;58088;51.186;17.130;2022-11-15T00:51:48;54.90;;;24.20;;
70532;SDS011;58088;51.186;17.130;2022-11-15T00:54:33;56.40;;;24.30;;
70532;SDS011;58088;51.186;17.130;2022-11-15T00:57:18;59.20;;;25.30;;
70532;SDS011;58088;51.186;17.130;2022-11-15T01:00:04;53.20;;;25.00;;
70532;SDS011;58088;51.186;17.130;2022-11-15T01:02:49;54.40;;;25.30;;
70532;SDS011;58088;51.186;17.130;2022-11-15T01:05:33;55.70;;;24.20;;
70532;SDS011;58088;51.186;17.130;2022-11-15T01:08:21;58.20;;;24.10;;
70532;SDS011;58088;51.186;17.130;2022-11-15T01:11:08;53.20;;;23.40;;
70532;SDS011;58088;51.186;17.130;2022-11-15T01:13:55;59.20;;;24.80;;
70532;SDS011;58088;51.186;17.130;2022-11-15T01:16:39;54.20;;;24.00;;
70532;SDS011;58088;51.186;17.130;2022-11-15T01:19:24;55.30;;;24.60;;
70532;SDS011;58088;51.186;17.130;2022-11-15T01:22:09;59.70;;;24.80;;
70532;SDS011;58088;51.186;17.130;2022-11-15T01:24:54;56.10;;;24.40;;
70532;SDS011;58088;51.186;17.130;2022-11-15T01:27:38;56.10;;;24.30;;
70532;SDS011;58088;51.186;17.130;2022-11-15T01:30:23;46.20;;;20.60;;
70532;SDS011;58088;51.186;17.130;2022-11-15T01:33:08;49.30;;;20.30;;
70532;SDS011;58088;51.186;17.130;2022-11-15T01:35:54;54.40;;;22.90;;
70532;SDS011;58088;51.186;17.130;2022-11-15T01:38:39;54.80;;;22.60;;
70532;SDS011;58088;51.186;17.130;2022-11-15T01:41:27;52.10;;;23.50;;
70532;SDS011;58088;51.186;17.130;2022-11-15T01:44:43;51.20;;;21.40;;
70532;SDS011;58088;51.186;17.130;2022-11-15T01:47:35;46.90;;;19.90;;
70532;SDS011;58088;51.186;17.130;2022-11-15T01:50:29;47.50;;;20.30;;
70532;SDS011;58088;51.186;17.130;2022-11-15T01:53:17;52.20;;;21.90;;
70532;SDS011;58088;51.186;17.130;2022-11-15T01:56:08;60.30;;;23.10;;
70532;SDS011;58088;51.186;17.130;2022-11-15T01:59:01;44.50;;;20.40;;
70532;SDS011;58088;51.186;17.130;2022-11-15T02:01:51;51.80;;;20.70;;
70532;SDS011;58088;51.186;17.130;2022-11-15T02:04:41;54.60;;;22.10;;
70532;SDS011;58088;51.186;17.130;2022-11-15T02:07:35;46.60;;;20.90;;
70532;SDS011;58088;51.186;17.130;2022-11-15T02:10:22;48.40;;;21.10;;
70532;SDS011;58088;51.186;17.130;2022-11-15T02:13:08;52.90;;;22.30;;
70532;SDS011;58088;51.186;17.130;2022-11-15T02:22:45;52.90;;;21.70;;
70532;SDS011;58088;51.186;17.130;2022-11-15T02:26:18;49.90;;;21.50;;
70532;SDS011;58088;51.186;17.130;2022-11-15T02:32:47;52.70;;;21.90;;
70532;SDS011;58088;51.186;17.130;2022-11-15T02:38:50;48.30;;;20.50;;
70532;SDS011;58088;51.186;17.130;2022-11-15T02:41:45;53.60;;;21.60;;
70532;SDS011;58088;51.186;17.130;2022-11-15T02:44:38;53.20;;;20.30;;
70532;SDS011;58088;51.186;17.130;2022-11-15T02:47:30;57.70;;;22.70;;
70532;SDS011;58088;51.186;17.130;2022-11-15T02:50:23;51.00;;;22.90;;
70532;SDS011;58088;51.186;17.130;2022-11-15T02:53:11;51.20;;;21.60;;
70532;SDS011;58088;51.186;17.130;2022-11-15T02:55:58;50.50;;;20.30;;
70532;SDS011;58088;51.186;17.130;2022-11-15T03:05:53;49.40;;;20.90;;
70532;SDS011;58088;51.186;17.130;2022-11-15T03:09:09;54.40;;;22.50;;
70532;SDS011;58088;51.186;17.130;2022-11-15T03:12:07;51.70;;;22.60;;
70532;SDS011;58088;51.186;17.130;2022-11-15T03:15:04;47.70;;;20.00;;
70532;SDS011;58088;51.186;17.130;2022-11-15T03:17:58;51.50;;;19.70;;
70532;SDS011;58088;51.186;17.130;2022-11-15T03:20:55;48.70;;;20.20;;
70532;SDS011;58088;51.186;17.130;2022-11-15T03:23:44;50.30;;;20.10;;
70532;SDS011;58088;51.186;17.130;2022-11-15T03:26:35;45.60;;;20.00;;
70532;SDS011;58088;51.186;17.130;2022-11-15T03:29:26;43.10;;;19.80;;
70532;SDS011;58088;51.186;17.130;2022-11-15T03:32:20;47.80;;;19.50;;
70532;SDS011;58088;51.186;17.130;2022-11-15T03:35:18;47.10;;;19.30;;
70532;SDS011;58088;51.186;17.130;2022-11-15T03:38:15;40.90;;;17.80;;
70532;SDS011;58088;51.186;17.130;2022-11-15T03:41:09;43.40;;;19.30;;
70532;SDS011;58088;51.186;17.130;2022-11-15T03:44:12;45.20;;;18.90;;
70532;SDS011;58088;51.186;17.130;2022-11-15T03:47:06;46.90;;;19.50;;
70532;SDS011;58088;51.186;17.130;2022-11-15T03:49:57;49.30;;;20.20;;
70532;SDS011;58088;51.186;17.130;2022-11-15T03:52:46;48.20;;;18.60;;
70532;SDS011;58088;51.186;17.130;2022-11-15T03:55:33;48.20;;;19.40;;
70532;SDS011;58088;51.186;17.130;2022-11-15T03:58:18;43.30;;;19.20;;
70532;SDS011;58088;51.186;17.130;2022-11-15T04:01:03;45.00;;;19.70;;
70532;SDS011;58088;51.186;17.130;2022-11-15T04:03:48;43.50;;;19.50;;
70532;SDS011;58088;51.186;17.130;2022-11-15T04:06:33;48.20;;;20.30;;
70532;SDS011;58088;51.186;17.130;2022-11-15T04:09:18;46.50;;;19.70;;
70532;SDS011;58088;51.186;17.130;2022-11-15T04:12:03;48.40;;;21.30;;
70532;SDS011;58088;51.186;17.130;2022-11-15T04:14:48;47.30;;;20.80;;
70532;SDS011;58088;51.186;17.130;2022-11-15T04:17:53;49.50;;;20.20;;
70532;SDS011;58088;51.186;17.130;2022-11-15T04:20:38;46.90;;;20.20;;
70532;SDS011;58088;51.186;17.130;2022-11-15T04:23:42;48.80;;;19.30;;
70532;SDS011;58088;51.186;17.130;2022-11-15T04:26:46;46.10;;;18.80;;
70532;SDS011;58088;51.186;17.130;2022-11-15T04:29:31;45.60;;;19.40;;
70532;SDS011;58088;51.186;17.130;2022-11-15T04:32:18;44.80;;;20.00;;
70532;SDS011;58088;51.186;17.130;2022-11-15T04:35:03;48.30;;;20.10;;
70532;SDS011;58088;51.186;17.130;2022-11-15T04:37:48;43.40;;;19.00;;
70532;SDS011;58088;51.186;17.130;2022-11-15T04:40:33;46.20;;;19.50;;
70532;SDS011;58088;51.186;17.130;2022-11-15T04:43:18;46.80;;;20.40;;
70532;SDS011;58088;51.186;17.130;2022-11-15T04:46:03;50.50;;;20.80;;
70532;SDS011;58088;51.186;17.130;2022-11-15T04:48:48;47.30;;;20.20;;
70532;SDS011;58088;51.186;17.130;2022-11-15T04:51:34;52.50;;;21.70;;
70532;SDS011;58088;51.186;17.130;2022-11-15T04:54:18;53.50;;;22.20;;
70532;SDS011;58088;51.186;17.130;2022-11-15T04:57:03;52.50;;;22.30;;
70532;SDS011;58088;51.186;17.130;2022-11-15T04:59:48;44.70;;;20.00;;
70532;SDS011;58088;51.186;17.130;2022-11-15T05:02:33;45.70;;;20.00;;
70532;SDS011;58088;51.186;17.130;2022-11-15T05:05:37;44.50;;;19.80;;
70532;SDS011;58088;51.186;17.130;2022-11-15T05:08:22;50.90;;;21.00;;
70532;SDS011;58088;51.186;17.130;2022-11-15T05:11:07;47.10;;;21.10;;
70532;SDS011;58088;51.186;17.130;2022-11-15T05:13:52;45.10;;;19.90;;
70532;SDS011;58088;51.186;17.130;2022-11-15T05:16:37;54.10;;;20.50;;
70532;SDS011;58088;51.186;17.130;2022-11-15T05:19:22;52.40;;;21.90;;
70532;SDS011;58088;51.186;17.130;2022-11-15T05:22:07;47.70;;;21.20;;
70532;SDS011;58088;51.186;17.130;2022-11-15T05:24:52;52.10;;;21.30;;
70532;SDS011;58088;51.186;17.130;2022-11-15T05:27:37;50.00;;;20.30;;
70532;SDS011;58088;51.186;17.130;2022-11-15T05:30:22;46.20;;;20.00;;
70532;SDS011;58088;51.186;17.130;2022-11-15T05:33:07;48.00;;;20.20;;
70532;SDS011;58088;51.186;17.130;2022-11-15T05:35:59;45.30;;;19.50;;
70532;SDS011;58088;51.186;17.130;2022-11-15T05:38:48;44.30;;;20.40;;
70532;SDS011;58088;51.186;17.130;2022-11-15T05:41:46;46.80;;;19.40;;
70532;SDS011;58088;51.186;17.130;2022-11-15T05:44:38;46.40;;;19.20;;
70532;SDS011;58088;51.186;17.130;2022-11-15T05:47:27;45.40;;;19.70;;
70532;SDS011;58088;51.186;17.130;2022-11-15T05:50:15;47.90;;;19.40;;
70532;SDS011;58088;51.186;17.130;2022-11-15T05:53:02;44.70;;;19.90;;
70532;SDS011;58088;51.186;17.130;2022-11-15T05:55:48;50.70;;;21.00;;
70532;SDS011;58088;51.186;17.130;2022-11-15T05:58:33;51.70;;;21.60;;
70532;SDS011;58088;51.186;17.130;2022-11-15T06:01:17;40.20;;;17.20;;
70532;SDS011;58088;51.186;17.130;2022-11-15T06:04:02;38.20;;;16.90;;
70532;SDS011;58088;51.186;17.130;2022-11-15T06:06:47;40.90;;;18.70;;
70532;SDS011;58088;51.186;17.130;2022-11-15T06:09:32;46.30;;;22.50;;
70532;SDS011;58088;51.186;17.130;2022-11-15T06:12:17;52.20;;;22.00;;
70532;SDS011;58088;51.186;17.130;2022-11-15T06:15:01;49.30;;;22.40;;
70532;SDS011;58088;51.186;17.130;2022-11-15T06:17:46;51.50;;;22.10;;
70532;SDS011;58088;51.186;17.130;2022-11-15T06:20:31;52.90;;;21.50;;
70532;SDS011;58088;51.186;17.130;2022-11-15T06:23:17;56.30;;;22.10;;
70532;SDS011;58088;51.186;17.130;2022-11-15T06:26:02;55.70;;;22.70;;
70532;SDS011;58088;51.186;17.130;2022-11-15T06:28:48;56.50;;;25.20;;
70532;SDS011;58088;51.186;17.130;2022-11-15T06:31:34;56.90;;;24.10;;
70532;SDS011;58088;51.186;17.130;2022-11-15T06:34:19;54.90;;;23.70;;
70532;SDS011;58088;51.186;17.130;2022-11-15T06:37:04;57.10;;;23.60;;
70532;SDS011;58088;51.186;17.130;2022-11-15T06:39:48;59.60;;;25.90;;
70532;SDS011;58088;51.186;17.130;2022-11-15T06:42:34;82.50;;;30.50;;
70532;SDS011;58088;51.186;17.130;2022-11-15T06:45:18;66.80;;;26.20;;
70532;SDS011;58088;51.186;17.130;2022-11-15T06:48:03;55.80;;;21.70;;
70532;SDS011;58088;51.186;17.130;2022-11-15T06:50:57;47.40;;;19.70;;
70532;SDS011;58088;51.186;17.130;2022-11-15T06:53:43;52.00;;;20.80;;
70532;SDS011;58088;51.186;17.130;2022-11-15T06:56:28;46.80;;;19.70;;
70532;SDS011;58088;51.186;17.130;2022-11-15T06:59:12;48.90;;;19.70;;
70532;SDS011;58088;51.186;17.130;2022-11-15T07:01:57;46.00;;;20.00;;
70532;SDS011;58088;51.186;17.130;2022-11-15T07:04:42;46.90;;;19.20;;
70532;SDS011;58088;51.186;17.130;2022-11-15T07:07:27;44.70;;;20.70;;
70532;SDS011;58088;51.186;17.130;2022-11-15T07:10:12;52.60;;;23.10;;
70532;SDS011;58088;51.186;17.130;2022-11-15T07:12:57;50.80;;;22.30;;
70532;SDS011;58088;51.186;17.130;2022-11-15T07:15:41;52.40;;;22.30;;
70532;SDS011;58088;51.186;17.130;2022-11-15T07:18:27;53.30;;;23.80;;
70532;SDS011;58088;51.186;17.130;2022-11-15T07:21:11;57.70;;;24.40;;
70532;SDS011;58088;51.186;17.130;2022-11-15T07:24:00;62.50;;;26.80;;
70532;SDS011;58088;51.186;17.130;2022-11-15T07:26:45;48.10;;;22.80;;
70532;SDS011;58088;51.186;17.130;2022-11-15T07:29:29;52.30;;;23.60;;
70532;SDS011;58088;51.186;17.130;2022-11-15T07:32:14;52.00;;;23.00;;
70532;SDS011;58088;51.186;17.130;2022-11-15T07:34:59;52.20;;;22.60;;
70532;SDS011;58088;51.186;17.130;2022-11-15T07:37:44;49.10;;;22.70;;
70532;SDS011;58088;51.186;17.130;2022-11-15T07:40:47;43.00;;;19.60;;
70532;SDS011;58088;51.186;17.130;2022-11-15T07:43:40;41.80;;;19.10;;
70532;SDS011;58088;51.186;17.130;2022-11-15T07:46:25;46.00;;;22.50;;
70532;SDS011;58088;51.186;17.130;2022-11-15T07:49:10;44.10;;;20.90;;
70532;SDS011;58088;51.186;17.130;2022-11-15T07:51:57;46.40;;;22.50;;
70532;SDS011;58088;51.186;17.130;2022-11-15T07:54:43;44.80;;;22.60;;
70532;SDS011;58088;51.186;17.130;2022-11-15T07:57:27;40.90;;;18.50;;
70532;SDS011;58088;51.186;17.130;2022-11-15T08:00:13;45.20;;;21.90;;
70532;SDS011;58088;51.186;17.130;2022-11-15T08:05:50;48.20;;;21.60;;
70532;SDS011;58088;51.186;17.130;2022-11-15T08:08:38;46.70;;;23.10;;
70532;SDS011;58088;51.186;17.130;2022-11-15T08:11:23;46.40;;;23.10;;
70532;SDS011;58088;51.186;17.130;2022-11-15T08:14:08;45.30;;;21.60;;
70532;SDS011;58088;51.186;17.130;2022-11-15T08:16:54;46.60;;;22.00;;
70532;SDS011;58088;51.186;17.130;2022-11-15T08:19:39;43.60;;;21.20;;
70532;SDS011;58088;51.186;17.130;2022-11-15T08:22:28;46.90;;;22.40;;
70532;SDS011;58088;51.186;17.130;2022-11-15T08:25:13;37.60;;;18.40;;
70532;SDS011;58088;51.186;17.130;2022-11-15T08:28:01;40.40;;;18.40;;
70532;SDS011;58088;51.186;17.130;2022-11-15T08:30:48;35.50;;;17.80;;
70532;SDS011;58088;51.186;17.130;2022-11-15T08:33:33;47.00;;;22.30;;
70532;SDS011;58088;51.186;17.130;2022-11-15T08:36:20;41.20;;;20.50;;
70532;SDS011;58088;51.186;17.130;2022-11-15T08:39:05;46.40;;;22.60;;
70532;SDS011;58088;51.186;17.130;2022-11-15T08:41:50;47.70;;;22.70;;
70532;SDS011;58088;51.186;17.130;2022-11-15T08:44:35;47.00;;;23.10;;
70532;SDS011;58088;51.186;17.130;2022-11-15T08:47:20;47.00;;;23.40;;
70532;SDS011;58088;51.186;17.130;2022-11-15T08:50:06;42.80;;;22.00;;
70532;SDS011;58088;51.186;17.130;2022-11-15T08:52:51;38.30;;;20.00;;
70532;SDS011;58088;51.186;17.130;2022-11-15T08:55:36;52.90;;;25.70;;
70532;SDS011;58088;51.186;17.130;2022-11-15T08:58:22;42.50;;;20.70;;
70532;SDS011;58088;51.186;17.130;2022-11-15T09:01:15;43.00;;;21.70;;
70532;SDS011;58088;51.186;17.130;2022-11-15T09:04:02;49.30;;;23.40;;
70532;SDS011;58088;51.186;17.130;2022-11-15T09:06:48;45.90;;;20.90;;
70532;SDS011;58088;51.186;17.130;2022-11-15T09:09:33;45.80;;;22.40;;
70532;SDS011;58088;51.186;17.130;2022-11-15T09:12:18;39.80;;;19.40;;
70532;SDS011;58088;51.186;17.130;2022-11-15T09:15:04;41.90;;;21.50;;
70532;SDS011;58088;51.186;17.130;2022-11-15T09:17:50;42.70;;;22.10;;
70532;SDS011;58088;51.186;17.130;2022-11-15T09:20:35;43.60;;;21.50;;
70532;SDS011;58088;51.186;17.130;2022-11-15T09:23:20;49.10;;;22.50;;
70532;SDS011;58088;51.186;17.130;2022-11-15T09:26:06;45.40;;;23.00;;
70532;SDS011;58088;51.186;17.130;2022-11-15T09:28:53;35.40;;;18.00;;
70532;SDS011;58088;51.186;17.130;2022-11-15T09:31:38;46.50;;;22.30;;
70532;SDS011;58088;51.186;17.130;2022-11-15T09:34:24;39.90;;;20.90;;
70532;SDS011;58088;51.186;17.130;2022-11-15T09:37:09;39.50;;;20.30;;
70532;SDS011;58088;51.186;17.130;2022-11-15T09:39:54;40.50;;;20.70;;
70532;SDS011;58088;51.186;17.130;2022-11-15T09:49:35;33.90;;;17.40;;
70532;SDS011;58088;51.186;17.130;2022-11-15T09:52:16;38.70;;;20.00;;
70532;SDS011;58088;51.186;17.130;2022-11-15T09:54:47;39.70;;;21.20;;
70532;SDS011;58088;51.186;17.130;2022-11-15T09:57:21;48.60;;;22.60;;
70532;SDS011;58088;51.186;17.130;2022-11-15T10:00:22;46.60;;;24.10;;
70532;SDS011;58088;51.186;17.130;2022-11-15T10:03:00;43.70;;;23.10;;
70532;SDS011;58088;51.186;17.130;2022-11-15T10:05:45;41.00;;;21.30;;
70532;SDS011;58088;51.186;17.130;2022-11-15T10:11:10;43.90;;;23.10;;
70532;SDS011;58088;51.186;17.130;2022-11-15T10:13:43;44.80;;;22.50;;
70532;SDS011;58088;51.186;17.130;2022-11-15T10:22:16;39.30;;;21.70;;
70532;SDS011;58088;51.186;17.130;2022-11-15T10:24:51;38.70;;;20.60;;
70532;SDS011;58088;51.186;17.130;2022-11-15T10:27:26;41.90;;;22.30;;
70532;SDS011;58088;51.186;17.130;2022-11-15T10:29:52;43.00;;;21.50;;
70532;SDS011;58088;51.186;17.130;2022-11-15T10:32:20;44.30;;;22.60;;
70532;SDS011;58088;51.186;17.130;2022-11-15T10:34:48;43.70;;;23.20;;
70532;SDS011;58088;51.186;17.130;2022-11-15T10:37:28;44.50;;;22.80;;
70532;SDS011;58088;51.186;17.130;2022-11-15T10:40:12;47.00;;;23.60;;
70532;SDS011;58088;51.186;17.130;2022-11-15T10:42:42;35.90;;;19.20;;
70532;SDS011;58088;51.186;17.130;2022-11-15T10:45:30;44.10;;;21.20;;
70532;SDS011;58088;51.186;17.130;2022-11-15T10:50:42;35.20;;;19.10;;
70532;SDS011;58088;51.186;17.130;2022-11-15T10:53:33;35.00;;;18.70;;
70532;SDS011;58088;51.186;17.130;2022-11-15T10:56:08;31.50;;;17.00;;
70532;SDS011;58088;51.186;17.130;2022-11-15T10:58:44;30.60;;;17.20;;
70532;SDS011;58088;51.186;17.130;2022-11-15T11:01:22;32.00;;;16.40;;
70532;SDS011;58088;51.186;17.130;2022-11-15T11:04:07;35.60;;;18.90;;
70532;SDS011;58088;51.186;17.130;2022-11-15T11:06:55;29.90;;;15.90;;
70532;SDS011;58088;51.186;17.130;2022-11-15T11:09:27;34.50;;;18.50;;
70532;SDS011;58088;51.186;17.130;2022-11-15T11:12:03;32.50;;;18.00;;
70532;SDS011;58088;51.186;17.130;2022-11-15T11:14:35;34.50;;;18.60;;
70532;SDS011;58088;51.186;17.130;2022-11-15T11:17:21;32.70;;;17.10;;
70532;SDS011;58088;51.186;17.130;2022-11-15T11:23:04;35.60;;;18.70;;
70532;SDS011;58088;51.186;17.130;2022-11-15T11:35:17;32.80;;;18.30;;
70532;SDS011;58088;51.186;17.130;2022-11-15T11:37:49;33.80;;;18.50;;
70532;SDS011;58088;51.186;17.130;2022-11-15T11:46:59;33.80;;;18.30;;
70532;SDS011;58088;51.186;17.130;2022-11-15T11:52:16;28.90;;;14.50;;
70532;SDS011;58088;51.186;17.130;2022-11-15T11:58:03;34.10;;;18.40;;
70532;SDS011;58088;51.186;17.130;2022-11-15T12:00:33;31.80;;;17.40;;
70532;SDS011;58088;51.186;17.130;2022-11-15T12:05:54;33.10;;;18.30;;
70532;SDS011;58088;51.186;17.130;2022-11-15T12:08:35;31.30;;;18.10;;
70532;SDS011;58088;51.186;17.130;2022-11-15T12:11:19;29.90;;;16.20;;
70532;SDS011;58088;51.186;17.130;2022-11-15T12:14:14;27.60;;;15.00;;
70532;SDS011;58088;51.186;17.130;2022-11-15T12:17:04;30.10;;;17.10;;
70532;SDS011;58088;51.186;17.130;2022-11-15T12:19:33;26.20;;;15.10;;
70532;SDS011;58088;51.186;17.130;2022-11-15T12:28:37;17.60;;;9.20;;
70532;SDS011;58088;51.186;17.130;2022-11-15T12:33:44;24.60;;;13.60;;
70532;SDS011;58088;51.186;17.130;2022-11-15T12:39:09;18.20;;;10.80;;
70532;SDS011;58088;51.186;17.130;2022-11-15T13:02:39;22.30;;;11.90;;
70532;SDS011;58088;51.186;17.130;2022-11-15T13:12:55;23.80;;;13.00;;
70532;SDS011;58088;51.186;17.130;2022-11-15T13:15:33;21.00;;;12.60;;
70532;SDS011;58088;51.186;17.130;2022-11-15T13:18:36;19.20;;;10.70;;
70532;SDS011;58088;51.186;17.130;2022-11-15T13:21:26;24.90;;;12.10;;
70532;SDS011;58088;51.186;17.130;2022-11-15T13:24:13;23.10;;;11.90;;
70532;SDS011;58088;51.186;17.130;2022-11-15T13:26:42;21.60;;;12.30;;
70532;SDS011;58088;51.186;17.130;2022-11-15T13:29:16;23.10;;;11.80;;
70532;SDS011;58088;51.186;17.130;2022-11-15T13:31:45;18.70;;;11.50;;
70532;SDS011;58088;51.186;17.130;2022-11-15T13:34:33;23.10;;;13.20;;
70532;SDS011;58088;51.186;17.130;2022-11-15T13:37:01;28.90;;;14.20;;
70532;SDS011;58088;51.186;17.130;2022-11-15T13:39:34;23.50;;;13.20;;
70532;SDS011;58088;51.186;17.130;2022-11-15T13:42:03;25.30;;;13.90;;
70532;SDS011;58088;51.186;17.130;2022-11-15T13:44:31;25.30;;;13.40;;
70532;SDS011;58088;51.186;17.130;2022-11-15T13:47:02;24.10;;;13.50;;
70532;SDS011;58088;51.186;17.130;2022-11-15T13:49:40;23.90;;;13.40;;
70532;SDS011;58088;51.186;17.130;2022-11-15T13:52:10;24.90;;;13.20;;
70532;SDS011;58088;51.186;17.130;2022-11-15T13:54:47;23.00;;;12.80;;
70532;SDS011;58088;51.186;17.130;2022-11-15T13:57:44;22.70;;;12.30;;
70532;SDS011;58088;51.186;17.130;2022-11-15T14:08:40;19.20;;;10.90;;
70532;SDS011;58088;51.186;17.130;2022-11-15T14:11:12;20.20;;;11.30;;
70532;SDS011;58088;51.186;17.130;2022-11-15T14:13:42;21.40;;;11.60;;
70532;SDS011;58088;51.186;17.130;2022-11-15T14:16:37;20.20;;;12.20;;
70532;SDS011;58088;51.186;17.130;2022-11-15T14:19:06;20.40;;;12.30;;
70532;SDS011;58088;51.186;17.130;2022-11-15T14:21:36;23.50;;;13.80;;
70532;SDS011;58088;51.186;17.130;2022-11-15T14:24:20;29.90;;;17.30;;
70532;SDS011;58088;51.186;17.130;2022-11-15T14:26:47;26.90;;;14.80;;
70532;SDS011;58088;51.186;17.130;2022-11-15T14:29:28;27.90;;;16.20;;
70532;SDS011;58088;51.186;17.130;2022-11-15T14:32:23;27.70;;;15.40;;
70532;SDS011;58088;51.186;17.130;2022-11-15T14:34:59;22.40;;;13.70;;
70532;SDS011;58088;51.186;17.130;2022-11-15T14:37:31;19.00;;;11.90;;
70532;SDS011;58088;51.186;17.130;2022-11-15T14:40:02;20.80;;;11.20;;
70532;SDS011;58088;51.186;17.130;2022-11-15T14:42:30;19.00;;;11.00;;
70532;SDS011;58088;51.186;17.130;2022-11-15T14:44:57;21.00;;;10.70;;
70532;SDS011;58088;51.186;17.130;2022-11-15T14:47:23;17.40;;;10.50;;
70532;SDS011;58088;51.186;17.130;2022-11-15T14:49:49;19.20;;;10.70;;
70532;SDS011;58088;51.186;17.130;2022-11-15T14:52:28;20.40;;;10.60;;
70532;SDS011;58088;51.186;17.130;2022-11-15T14:54:56;21.10;;;10.50;;
70532;SDS011;58088;51.186;17.130;2022-11-15T14:57:24;21.00;;;10.80;;
70532;SDS011;58088;51.186;17.130;2022-11-15T14:59:50;17.80;;;10.20;;
70532;SDS011;58088;51.186;17.130;2022-11-15T15:02:20;19.60;;;10.30;;
70532;SDS011;58088;51.186;17.130;2022-11-15T15:04:48;23.20;;;10.90;;
70532;SDS011;58088;51.186;17.130;2022-11-15T15:07:16;27.60;;;13.90;;
70532;SDS011;58088;51.186;17.130;2022-11-15T15:09:43;24.30;;;13.30;;
70532;SDS011;58088;51.186;17.130;2022-11-15T15:12:21;22.60;;;13.30;;
70532;SDS011;58088;51.186;17.130;2022-11-15T15:14:49;23.80;;;14.40;;
70532;SDS011;58088;51.186;17.130;2022-11-15T15:17:16;26.20;;;14.60;;
70532;SDS011;58088;51.186;17.130;2022-11-15T15:19:43;27.80;;;14.90;;
70532;SDS011;58088;51.186;17.130;2022-11-15T15:22:17;30.10;;;14.80;;
70532;SDS011;58088;51.186;17.130;2022-11-15T15:24:45;26.10;;;14.70;;
70532;SDS011;58088;51.186;17.130;2022-11-15T15:27:12;29.20;;;15.20;;
70532;SDS011;58088;51.186;17.130;2022-11-15T15:29:39;33.20;;;15.90;;
70532;SDS011;58088;51.186;17.130;2022-11-15T15:32:06;26.90;;;14.50;;
70532;SDS011;58088;51.186;17.130;2022-11-15T15:34:32;26.80;;;14.50;;
70532;SDS011;58088;51.186;17.130;2022-11-15T15:37:26;28.60;;;14.20;;
70532;SDS011;58088;51.186;17.130;2022-11-15T15:39:54;30.90;;;17.30;;
70532;SDS011;58088;51.186;17.130;2022-11-15T15:42:22;31.20;;;16.90;;
70532;SDS011;58088;51.186;17.130;2022-11-15T15:44:49;32.70;;;16.70;;
70532;SDS011;58088;51.186;17.130;2022-11-15T15:47:20;38.20;;;19.50;;
70532;SDS011;58088;51.186;17.130;2022-11-15T15:49:48;41.00;;;20.60;;
70532;SDS011;58088;51.186;17.130;2022-11-15T15:52:16;56.40;;;24.80;;
70532;SDS011;58088;51.186;17.130;2022-11-15T15:54:42;52.20;;;25.60;;
70532;SDS011;58088;51.186;17.130;2022-11-15T15:57:12;50.00;;;25.30;;
70532;SDS011;58088;51.186;17.130;2022-11-15T15:59:40;59.30;;;28.00;;
70532;SDS011;58088;51.186;17.130;2022-11-15T16:02:09;49.40;;;23.10;;
70532;SDS011;58088;51.186;17.130;2022-11-15T16:04:39;63.20;;;28.90;;
70532;SDS011;58088;51.186;17.130;2022-11-15T16:07:05;47.30;;;23.90;;
70532;SDS011;58088;51.186;17.130;2022-11-15T16:09:36;46.50;;;24.30;;
70532;SDS011;58088;51.186;17.130;2022-11-15T16:12:20;51.70;;;23.20;;
70532;SDS011;58088;51.186;17.130;2022-11-15T16:14:46;45.60;;;23.20;;
70532;SDS011;58088;51.186;17.130;2022-11-15T16:17:19;46.90;;;22.10;;
70532;SDS011;58088;51.186;17.130;2022-11-15T16:19:47;35.30;;;17.90;;
70532;SDS011;58088;51.186;17.130;2022-11-15T16:22:13;49.10;;;24.90;;
70532;SDS011;58088;51.186;17.130;2022-11-15T16:24:39;48.70;;;22.80;;
70532;SDS011;58088;51.186;17.130;2022-11-15T16:27:05;46.40;;;21.00;;
70532;SDS011;58088;51.186;17.130;2022-11-15T16:29:38;38.50;;;19.60;;
70532;SDS011;58088;51.186;17.130;2022-11-15T16:32:04;36.00;;;19.00;;
70532;SDS011;58088;51.186;17.130;2022-11-15T16:34:30;35.10;;;18.80;;
70532;SDS011;58088;51.186;17.130;2022-11-15T16:36:56;34.40;;;18.60;;
70532;SDS011;58088;51.186;17.130;2022-11-15T16:39:22;34.70;;;19.40;;
70532;SDS011;58088;51.186;17.130;2022-11-15T16:41:48;32.50;;;18.60;;
70532;SDS011;58088;51.186;17.130;2022-11-15T16:44:15;41.80;;;21.40;;
70532;SDS011;58088;51.186;17.130;2022-11-15T16:46:42;53.30;;;30.50;;
70532;SDS011;58088;51.186;17.130;2022-11-15T16:49:14;53.40;;;28.20;;
70532;SDS011;58088;51.186;17.130;2022-11-15T16:51:41;49.10;;;26.90;;
70532;SDS011;58088;51.186;17.130;2022-11-15T16:54:09;53.50;;;28.70;;
70532;SDS011;58088;51.186;17.130;2022-11-15T16:56:35;50.10;;;26.50;;
70532;SDS011;58088;51.186;17.130;2022-11-15T16:59:01;56.10;;;31.30;;
70532;SDS011;58088;51.186;17.130;2022-11-15T17:01:31;56.30;;;29.70;;
70532;SDS011;58088;51.186;17.130;2022-11-15T17:04:01;60.50;;;32.00;;
70532;SDS011;58088;51.186;17.130;2022-11-15T17:06:42;57.70;;;30.20;;
70532;SDS011;58088;51.186;17.130;2022-11-15T17:09:12;59.60;;;29.80;;
70532;SDS011;58088;51.186;17.130;2022-11-15T17:11:45;73.40;;;34.00;;
70532;SDS011;58088;51.186;17.130;2022-11-15T17:14:12;70.60;;;33.80;;
70532;SDS011;58088;51.186;17.130;2022-11-15T17:16:38;56.90;;;27.30;;
70532;SDS011;58088;51.186;17.130;2022-11-15T17:19:15;104.40;;;45.10;;
70532;SDS011;58088;51.186;17.130;2022-11-15T17:21:46;181.70;;;74.10;;
70532;SDS011;58088;51.186;17.130;2022-11-15T17:24:16;237.60;;;92.80;;
70532;SDS011;58088;51.186;17.130;2022-11-15T17:26:45;96.10;;;45.60;;
70532;SDS011;58088;51.186;17.130;2022-11-15T17:29:11;70.20;;;35.20;;
70532;SDS011;58088;51.186;17.130;2022-11-15T17:31:38;64.70;;;31.80;;